Terminal Aerodrome Forecast
Issued by NWS

Home | Current Version | Previous Version | Text Only | Print | Product List | Glossary On
Versions: 1 2 3 4 5 6 7 8 9 10 11 12 13 14 15 16 17 18 19
000
FTUS46 KPDT 201100
TAFRDM
TAF
KRDM 201120Z 2012/2112 18010KT 6SM -RA BR OVC035
     FM201500 18013KT 6SM -RA BR OVC030
     FM201800 21013G23KT P6SM -RA OVC025
     FM210600 23025G40KT P6SM -RA OVC025=

USA.gov is the U.S. government's official web portal to all federal, state and local government web resources and services.